createdAt,value
2022-12-24T00:02:51.536Z,7.10
2022-12-24T00:06:54.562Z,7.73
2022-12-24T00:10:57.619Z,6.53
2022-12-24T00:15:00.536Z,9.27
2022-12-24T00:19:05.020Z,8.57
2022-12-24T00:23:08.941Z,7.77
2022-12-24T00:27:11.692Z,8.50
2022-12-24T00:31:17.115Z,9.00
2022-12-24T00:35:21.947Z,11.53
2022-12-24T00:39:25.149Z,7.10
2022-12-24T00:43:28.119Z,9.13
2022-12-24T00:47:31.089Z,8.27
2022-12-24T00:51:36.265Z,7.13
2022-12-24T00:55:39.431Z,6.50
2022-12-24T00:59:42.419Z,7.83
2022-12-24T01:03:45.524Z,7.03
2022-12-24T01:07:50.736Z,8.93
2022-12-24T01:11:54.518Z,7.33
2022-12-24T01:15:57.565Z,8.10
2022-12-24T01:20:00.508Z,9.00
2022-12-24T01:24:04.892Z,8.90
2022-12-24T01:28:07.761Z,7.63
2022-12-24T01:32:10.756Z,10.37
2022-12-24T01:36:14.879Z,8.03
2022-12-24T01:40:37.762Z,9.23
2022-12-24T01:44:43.001Z,8.43
2022-12-24T01:48:50.526Z,9.33
2022-12-24T01:52:53.360Z,7.67
2022-12-24T01:57:02.258Z,8.53
2022-12-24T02:01:06.025Z,8.60
2022-12-24T02:05:15.306Z,8.37
2022-12-24T02:09:18.756Z,7.37
2022-12-24T02:13:23.050Z,8.43
2022-12-24T02:17:32.668Z,8.00
2022-12-24T02:21:59.600Z,8.13
2022-12-24T02:26:26.276Z,8.27
2022-12-24T02:30:38.019Z,8.63
2022-12-24T02:34:49.164Z,9.00
2022-12-24T02:39:01.334Z,7.20
2022-12-24T02:43:10.857Z,8.43
2022-12-24T02:47:20.284Z,7.53
2022-12-24T02:51:25.232Z,9.60
2022-12-24T02:55:41.678Z,8.17
2022-12-24T03:00:01.199Z,8.17
2022-12-24T03:04:15.898Z,8.40
2022-12-24T03:08:33.627Z,7.53
2022-12-24T03:12:40.990Z,9.00
2022-12-24T03:16:45.918Z,7.70
2022-12-24T03:20:55.678Z,7.27
2022-12-24T03:24:58.638Z,7.20
2022-12-24T03:29:05.164Z,8.90
2022-12-24T03:33:08.075Z,7.80
2022-12-24T03:37:12.954Z,9.07
2022-12-24T03:41:16.295Z,8.23
2022-12-24T03:45:19.466Z,8.47
2022-12-24T03:49:22.505Z,8.47
2022-12-24T03:53:27.363Z,9.13
2022-12-24T03:57:30.302Z,7.50
2022-12-24T04:01:33.460Z,8.23
2022-12-24T04:05:36.608Z,9.00
2022-12-24T04:09:41.477Z,7.53
2022-12-24T04:13:44.563Z,7.00
2022-12-24T04:17:47.427Z,8.10
2022-12-24T04:21:51.398Z,9.57
2022-12-24T04:25:55.709Z,10.50
2022-12-24T04:29:58.786Z,8.63
2022-12-24T04:34:01.633Z,7.80
2022-12-24T04:38:04.967Z,9.57
2022-12-24T04:42:10.892Z,7.93
2022-12-24T04:46:18.035Z,6.80
2022-12-24T04:50:20.924Z,7.67
2022-12-24T04:54:23.921Z,6.97
2022-12-24T04:58:28.950Z,7.67
2022-12-24T05:02:31.905Z,8.17
2022-12-24T05:06:35.274Z,7.90
2022-12-24T05:10:38.192Z,8.13
2022-12-24T05:14:43.036Z,9.27
2022-12-24T05:18:47.041Z,9.43
2022-12-24T05:23:07.810Z,8.83
2022-12-24T05:27:10.968Z,9.90
2022-12-24T05:31:15.375Z,9.53
2022-12-24T05:35:19.782Z,9.00
2022-12-24T05:39:22.774Z,10.43
2022-12-24T05:43:25.676Z,9.43
2022-12-24T05:47:30.218Z,9.93
2022-12-24T05:51:33.244Z,9.63
2022-12-24T05:55:36.444Z,10.37
2022-12-24T05:59:39.527Z,10.70
2022-12-24T06:03:44.061Z,10.90
2022-12-24T06:07:47.068Z,11.13
2022-12-24T06:11:50.087Z,10.40
2022-12-24T06:15:55.874Z,10.37
2022-12-24T06:20:00.049Z,10.73
2022-12-24T06:24:03.103Z,10.87
2022-12-24T06:28:06.455Z,10.33
2022-12-24T06:32:09.352Z,11.90
2022-12-24T06:36:18.147Z,11.30
2022-12-24T06:40:21.447Z,12.27
2022-12-24T06:44:24.538Z,14.53
2022-12-24T06:48:27.547Z,13.93
2022-12-24T06:52:31.780Z,10.60
2022-12-24T06:56:34.739Z,10.63
2022-12-24T07:00:37.649Z,11.20
2022-12-24T07:04:40.679Z,10.33
2022-12-24T07:08:46.045Z,10.17
2022-12-24T07:12:50.314Z,11.33
2022-12-24T07:16:58.918Z,9.23
2022-12-24T07:21:04.906Z,10.60
2022-12-24T07:25:11.554Z,10.03
2022-12-24T07:29:14.576Z,10.47
2022-12-24T07:33:17.672Z,10.83
2022-12-24T07:37:20.631Z,9.90
2022-12-24T07:41:24.969Z,10.70
2022-12-24T07:45:28.828Z,10.57
2022-12-24T07:49:31.822Z,9.83
2022-12-24T07:53:34.799Z,10.70
2022-12-24T07:57:39.152Z,11.17
2022-12-24T08:01:42.437Z,12.07
2022-12-24T08:05:46.443Z,14.07
2022-12-24T08:09:49.842Z,10.93
2022-12-24T08:13:54.260Z,10.23
2022-12-24T08:17:57.359Z,11.30
2022-12-24T08:22:00.370Z,12.10
2022-12-24T08:26:03.535Z,11.03
2022-12-24T08:30:09.224Z,12.53
2022-12-24T08:34:12.693Z,11.77
2022-12-24T08:38:16.625Z,12.93
2022-12-24T08:42:19.800Z,11.87
2022-12-24T08:46:24.351Z,11.53
2022-12-24T08:50:28.340Z,11.97
2022-12-24T08:54:31.409Z,12.33
2022-12-24T08:58:34.564Z,13.40
2022-12-24T09:02:39.087Z,13.47
2022-12-24T09:06:42.187Z,11.53
2022-12-24T09:10:45.515Z,12.73
2022-12-24T09:14:48.915Z,11.97
2022-12-24T09:18:53.486Z,14.40
2022-12-24T09:22:56.331Z,12.30
2022-12-24T09:26:59.358Z,13.93
2022-12-24T09:31:04.211Z,10.87
2022-12-24T09:35:09.087Z,11.70
2022-12-24T09:39:12.011Z,11.43
2022-12-24T09:43:19.007Z,11.33
2022-12-24T09:47:27.533Z,10.50
2022-12-24T09:51:37.161Z,10.43
2022-12-24T09:55:45.355Z,10.03
2022-12-24T09:59:49.098Z,9.90
2022-12-24T10:03:53.485Z,9.97
2022-12-24T10:08:07.973Z,10.07
2022-12-24T10:12:20.156Z,9.73
2022-12-24T10:16:30.233Z,9.97
2022-12-24T10:20:43.185Z,10.67
2022-12-24T10:24:55.990Z,11.87
2022-12-24T10:29:03.873Z,11.93
2022-12-24T10:33:20.866Z,11.70
2022-12-24T10:37:47.786Z,10.77
2022-12-24T10:42:07.435Z,11.70
2022-12-24T10:46:19.824Z,10.60
2022-12-24T10:50:33.817Z,12.90
2022-12-24T10:54:39.887Z,13.83
2022-12-24T10:58:46.514Z,12.17
2022-12-24T11:03:06.333Z,11.50
2022-12-24T11:07:20.299Z,11.30
2022-12-24T11:11:23.529Z,9.97
2022-12-24T11:15:32.835Z,10.80
2022-12-24T11:19:40.094Z,11.37
2022-12-24T11:23:51.436Z,10.47
2022-12-24T11:27:54.830Z,10.67
2022-12-24T11:32:17.310Z,9.80
2022-12-24T11:36:23.810Z,8.83
2022-12-24T11:40:34.673Z,9.37
2022-12-24T11:44:49.500Z,9.43
2022-12-24T11:49:08.339Z,9.27
2022-12-24T11:53:20.047Z,10.30
2022-12-24T11:57:27.718Z,9.93
2022-12-24T12:01:35.355Z,9.33
2022-12-24T12:05:40.011Z,8.83
2022-12-24T12:09:45.414Z,9.87
2022-12-24T12:13:49.306Z,10.97
2022-12-24T12:18:04.998Z,9.90
2022-12-24T12:22:19.978Z,9.37
2022-12-24T12:26:26.215Z,8.30
2022-12-24T12:30:31.751Z,8.90
2022-12-24T12:34:41.022Z,8.13
2022-12-24T12:38:46.506Z,9.23
2022-12-24T12:43:00.692Z,9.80
2022-12-24T12:47:23.805Z,8.80
2022-12-24T12:51:39.100Z,8.43
2022-12-24T12:55:53.324Z,8.13
2022-12-24T13:00:02.411Z,8.07
2022-12-24T13:04:36.064Z,8.10
2022-12-24T13:08:59.984Z,8.47
2022-12-24T13:13:24.456Z,7.97
2022-12-24T13:18:07.632Z,7.40
2022-12-24T13:22:17.205Z,7.17
2022-12-24T13:26:20.113Z,7.13
2022-12-24T13:30:38.331Z,6.43
2022-12-24T13:34:48.005Z,7.13
2022-12-24T13:38:51.768Z,6.87
2022-12-24T13:43:12.206Z,7.47
2022-12-24T13:47:31.676Z,6.93
2022-12-24T13:51:35.832Z,7.83
2022-12-24T13:55:52.342Z,7.17
2022-12-24T14:00:00.820Z,7.60
2022-12-24T14:04:09.302Z,9.53
2022-12-24T14:08:16.626Z,7.77
2022-12-24T14:12:48.854Z,8.00
2022-12-24T14:16:53.708Z,6.90
2022-12-24T14:21:00.213Z,7.73
2022-12-24T14:25:08.391Z,9.07
2022-12-24T14:29:24.951Z,15.70
2022-12-24T14:33:32.208Z,11.60
2022-12-24T14:37:36.976Z,7.00
2022-12-24T14:41:50.687Z,7.10
2022-12-24T14:46:03.181Z,6.97
2022-12-24T14:50:31.387Z,7.00
2022-12-24T14:54:41.232Z,8.20
2022-12-24T14:58:44.818Z,7.83
2022-12-24T15:02:49.282Z,7.23
2022-12-24T15:06:57.606Z,6.83
2022-12-24T15:11:05.092Z,10.53
2022-12-24T15:15:15.503Z,12.30
2022-12-24T15:19:25.651Z,9.27
2022-12-24T15:23:31.690Z,7.13
2022-12-24T15:27:40.325Z,7.57
2022-12-24T15:31:43.808Z,9.10
2022-12-24T15:35:53.465Z,7.70
2022-12-24T15:40:09.945Z,6.63
2022-12-24T15:44:17.091Z,5.47
2022-12-24T15:48:24.537Z,5.70
2022-12-24T15:52:27.939Z,7.17
2022-12-24T15:56:37.587Z,6.10
2022-12-24T16:00:42.396Z,8.17
2022-12-24T16:04:45.639Z,7.93
2022-12-24T16:08:50.938Z,10.03
2022-12-24T16:12:54.033Z,11.70
2022-12-24T16:16:59.151Z,9.23
2022-12-24T16:21:02.826Z,9.70
2022-12-24T16:25:25.356Z,8.33
2022-12-24T16:29:28.353Z,11.33
2022-12-24T16:33:33.665Z,10.97
2022-12-24T16:37:38.706Z,8.93
2022-12-24T16:42:00.655Z,8.33
2022-12-24T16:46:06.654Z,6.70
2022-12-24T16:50:16.953Z,6.33
2022-12-24T16:54:20.923Z,6.90
2022-12-24T16:58:24.798Z,8.07
2022-12-24T17:02:27.800Z,8.77
2022-12-24T17:06:32.315Z,9.57
2022-12-24T17:10:36.096Z,10.73
2022-12-24T17:14:39.833Z,10.70
2022-12-24T17:18:42.702Z,8.80
2022-12-24T17:22:47.547Z,8.57
2022-12-24T17:26:50.590Z,8.63
2022-12-24T17:30:53.548Z,10.07
2022-12-24T17:34:56.616Z,10.27
2022-12-24T17:39:01.550Z,9.53
2022-12-24T17:43:05.707Z,8.87
2022-12-24T17:47:09.473Z,9.03
2022-12-24T17:51:15.184Z,8.60
2022-12-24T17:55:23.666Z,9.70
2022-12-24T17:59:27.131Z,9.77
2022-12-24T18:03:36.322Z,9.53
2022-12-24T18:07:40.171Z,10.23
2022-12-24T18:11:45.820Z,9.77
2022-12-24T18:15:49.158Z,9.77
2022-12-24T18:19:52.747Z,10.97
2022-12-24T18:23:56.654Z,9.17
2022-12-24T18:28:01.465Z,10.30
2022-12-24T18:32:04.450Z,10.10
2022-12-24T18:36:08.555Z,13.00
2022-12-24T18:40:12.712Z,11.37
2022-12-24T18:44:24.302Z,10.13
2022-12-24T18:48:28.047Z,12.47
2022-12-24T18:52:32.391Z,13.90
2022-12-24T18:56:35.572Z,13.07
2022-12-24T19:00:39.846Z,12.17
2022-12-24T19:04:43.335Z,12.37
2022-12-24T19:08:56.983Z,14.27
2022-12-24T19:13:01.005Z,13.67
2022-12-24T19:17:05.415Z,13.00
2022-12-24T19:21:10.072Z,13.37
2022-12-24T19:25:13.041Z,14.47
2022-12-24T19:29:16.749Z,15.80
2022-12-24T19:33:21.672Z,15.70
2022-12-24T19:37:24.876Z,14.40
2022-12-24T19:41:29.865Z,15.90
2022-12-24T19:45:33.970Z,15.60
2022-12-24T19:49:38.241Z,23.70
2022-12-24T19:53:41.331Z,18.83
2022-12-24T19:57:45.336Z,17.53
2022-12-24T20:02:13.744Z,16.60
2022-12-24T20:06:19.999Z,15.27
2022-12-24T20:10:23.169Z,15.50
2022-12-24T20:14:26.799Z,14.83
2022-12-24T20:18:30.742Z,17.87
2022-12-24T20:22:35.113Z,17.63
2022-12-24T20:26:40.106Z,17.27
2022-12-24T20:30:43.141Z,17.07
2022-12-24T20:34:46.761Z,17.83
2022-12-24T20:38:52.003Z,19.23
2022-12-24T20:42:55.082Z,17.77
2022-12-24T20:46:59.977Z,17.73
2022-12-24T20:51:07.511Z,20.90
2022-12-24T20:55:11.950Z,16.53
2022-12-24T20:59:15.393Z,17.17
2022-12-24T21:03:33.642Z,16.57
2022-12-24T21:07:48.292Z,17.87
2022-12-24T21:12:24.237Z,15.87
2022-12-24T21:16:39.076Z,19.63
2022-12-24T21:20:49.020Z,19.40
2022-12-24T21:24:52.056Z,34.93
2022-12-24T21:28:56.700Z,20.33
2022-12-24T21:32:59.818Z,17.20
2022-12-24T21:37:03.405Z,15.67
2022-12-24T21:41:10.717Z,16.33
2022-12-24T21:45:15.149Z,14.97
2022-12-24T21:49:35.800Z,15.33
2022-12-24T21:53:56.613Z,16.07
2022-12-24T21:58:00.019Z,14.83
2022-12-24T22:02:26.595Z,14.53
2022-12-24T22:06:47.676Z,13.20
2022-12-24T22:11:08.465Z,15.47
2022-12-24T22:15:12.152Z,15.67
2022-12-24T22:19:18.329Z,17.07
2022-12-24T22:23:21.461Z,16.83
2022-12-24T22:27:24.581Z,16.07
2022-12-24T22:31:27.565Z,15.07
2022-12-24T22:35:32.066Z,20.07
2022-12-24T22:39:35.643Z,16.07
2022-12-24T22:43:38.844Z,13.80
2022-12-24T22:47:41.967Z,13.13
2022-12-24T22:51:46.302Z,13.10
2022-12-24T22:55:56.179Z,13.30
2022-12-24T22:59:59.856Z,13.30
2022-12-24T23:04:10.391Z,12.20
2022-12-24T23:08:15.199Z,11.60
2022-12-24T23:12:38.494Z,11.60
2022-12-24T23:16:43.546Z,13.47
2022-12-24T23:20:46.532Z,13.27
2022-12-24T23:24:50.831Z,11.87
2022-12-24T23:28:54.341Z,14.67
2022-12-24T23:32:57.293Z,13.40
2022-12-24T23:37:00.326Z,15.07
2022-12-24T23:41:07.029Z,13.80
2022-12-24T23:45:10.922Z,12.93
2022-12-24T23:49:14.947Z,15.17
2022-12-24T23:53:19.791Z,13.60
2022-12-24T23:57:24.617Z,13.90
